Time;durP1;ratioP1;P1;durP2;ratioP2;P2;SDS_P1;SDS_P2;PMS_P1;PMS_P2;Temp;Humidity;BMP_temperature;BMP_pressure;BME280_temperature;BME280_humidity;BME280_pressure;Samples;Min_cycle;Max_cycle;Signal;HPM_P1;HPM_P2
2021/06/10 00:02:09;;;;;;;19.87;17.98;;;25.10;62.10;;;;;;4830665;54;20976;-29
2021/06/10 00:07:10;;;;;;;20.45;18.45;;;25.10;62.10;;;;;;4866271;54;21042;-34
2021/06/10 00:12:12;;;;;;;20.70;18.67;;;25.10;62.10;;;;;;4830574;54;21015;-28
2021/06/10 00:17:13;;;;;;;20.88;18.77;;;25.10;62.10;;;;;;4810560;54;21087;-28
2021/06/10 00:22:14;;;;;;;18.98;17.20;;;25.10;62.10;;;;;;4811500;54;21100;-29
2021/06/10 00:27:20;;;;;;;19.05;17.25;;;25.00;62.00;;;;;;4822080;54;21019;-30
2021/06/10 00:32:21;;;;;;;19.87;18.00;;;25.00;62.00;;;;;;4795402;58;21557;-35
2021/06/10 00:37:22;;;;;;;20.62;18.60;;;25.10;62.10;;;;;;4811392;54;21063;-27
2021/06/10 00:42:22;;;;;;;20.83;18.83;;;25.10;62.00;;;;;;4795469;58;20999;-29
2021/06/10 00:47:23;;;;;;;19.37;17.48;;;25.00;62.60;;;;;;4820023;54;21090;-33
2021/06/10 00:52:24;;;;;;;19.10;17.30;;;25.10;62.00;;;;;;4795649;58;21063;-33
2021/06/10 00:57:25;;;;;;;19.75;17.95;;;25.00;61.90;;;;;;4802859;54;21003;-34
2021/06/10 01:02:26;;;;;;;19.90;17.95;;;25.10;62.00;;;;;;4832662;54;21027;-36
2021/06/10 01:08:05;;;;;;;19.37;17.42;;;25.10;62.00;;;;;;4795287;58;21027;-32
2021/06/10 01:13:25;;;;;;;18.80;16.90;;;25.10;61.90;;;;;;4806502;54;21027;-35
2021/06/10 01:18:27;;;;;;;19.05;17.15;;;25.00;61.90;;;;;;4816823;54;21054;-32
2021/06/10 01:24:44;;;;;;;17.50;15.90;;;25.00;61.90;;;;;;4845713;54;21031;-28
2021/06/10 01:29:49;;;;;;;18.90;17.10;;;25.00;61.80;;;;;;4877336;54;21015;-34
2021/06/10 01:34:51;;;;;;;18.50;16.70;;;25.00;61.80;;;;;;4824633;54;21003;-28
2021/06/10 01:39:53;;;;;;;18.45;16.65;;;25.00;61.80;;;;;;4806886;54;21468;-30
2021/06/10 01:44:56;;;;;;;19.35;17.35;;;25.00;61.80;;;;;;4805679;54;21019;-36
2021/06/10 01:49:58;;;;;;;18.08;16.23;;;25.00;61.70;;;;;;4809684;54;20995;-36
2021/06/10 01:55:00;;;;;;;18.87;17.00;;;25.00;61.70;;;;;;4914074;54;20979;-35
2021/06/10 02:00:03;;;;;;;18.33;16.52;;;25.00;61.70;;;;;;4805538;54;21071;-32
2021/06/10 02:05:10;;;;;;;18.60;16.80;;;25.00;61.70;;;;;;4802302;54;21031;-36
2021/06/10 02:10:14;;;;;;;17.85;16.25;;;25.00;61.70;;;;;;4847196;54;21109;-31
2021/06/10 02:15:20;;;;;;;16.45;14.95;;;25.00;61.70;;;;;;4841012;54;20987;-25
2021/06/10 02:20:21;;;;;;;17.23;15.63;;;25.00;61.60;;;;;;4794583;58;21015;-35
2021/06/10 02:25:22;;;;;;;17.70;15.93;;;25.00;61.60;;;;;;4824638;54;21050;-35
2021/06/10 02:30:23;;;;;;;17.25;15.65;;;25.00;61.70;;;;;;4807676;54;21062;-35
2021/06/10 02:35:24;;;;;;;17.33;15.77;;;25.00;61.60;;;;;;4806694;54;21003;-31
2021/06/10 02:40:29;;;;;;;18.00;16.30;;;25.00;61.60;;;;;;4841341;54;21011;-31
2021/06/10 02:45:31;;;;;;;17.10;15.50;;;25.00;61.60;;;;;;4794744;58;21003;-30
2021/06/10 02:50:33;;;;;;;17.12;15.43;;;25.00;61.50;;;;;;4871360;54;21050;-30
2021/06/10 02:55:36;;;;;;;16.40;14.90;;;25.00;61.50;;;;;;4899996;54;21345;-30
2021/06/10 03:00:37;;;;;;;16.05;14.55;;;25.00;61.50;;;;;;4810977;54;20999;-33
2021/06/10 03:05:41;;;;;;;17.42;15.63;;;25.00;61.40;;;;;;4796446;54;21034;-27
2021/06/10 03:10:44;;;;;;;18.05;16.35;;;25.00;61.40;;;;;;4814766;54;21106;-29
2021/06/10 03:15:46;;;;;;;16.20;14.60;;;25.00;61.40;;;;;;4828837;54;21141;-33
2021/06/10 03:20:48;;;;;;;16.27;14.68;;;25.00;61.40;;;;;;4865728;54;21106;-26
2021/06/10 03:25:50;;;;;;;15.93;14.43;;;25.00;61.40;;;;;;4817145;54;21011;-29
2021/06/10 03:30:51;;;;;;;16.15;14.55;;;25.00;61.40;;;;;;4866416;54;21074;-27
2021/06/10 03:35:55;;;;;;;16.45;14.95;;;25.00;61.40;;;;;;4842744;54;21473;-31
2021/06/10 03:40:57;;;;;;;16.17;14.65;;;25.00;61.30;;;;;;4801797;54;21534;-34
2021/06/10 03:45:59;;;;;;;16.62;15.02;;;25.00;61.30;;;;;;4804001;54;21513;-36
2021/06/10 03:51:00;;;;;;;15.90;14.40;;;25.00;61.30;;;;;;4807686;54;20959;-35
2021/06/10 03:56:01;;;;;;;16.15;14.65;;;25.00;61.20;;;;;;4801424;54;21038;-26
2021/06/10 04:01:02;;;;;;;16.15;14.57;;;24.90;61.20;;;;;;4843236;54;21134;-27
2021/06/10 04:06:03;;;;;;;14.43;13.02;;;24.90;61.10;;;;;;4796064;54;21016;-33
2021/06/10 04:11:04;;;;;;;15.18;13.68;;;25.00;61.10;;;;;;4794942;58;21070;-30
2021/06/10 04:16:05;;;;;;;14.98;13.48;;;25.00;61.10;;;;;;4868565;54;20999;-33
2021/06/10 04:21:06;;;;;;;14.63;13.32;;;24.90;61.00;;;;;;4803338;54;21038;-33
2021/06/10 04:26:07;;;;;;;14.48;12.98;;;24.90;61.00;;;;;;4803168;54;21022;-29
2021/06/10 04:31:07;;;;;;;14.73;13.25;;;24.90;61.00;;;;;;4817876;54;21047;-32
2021/06/10 04:36:10;;;;;;;15.10;13.65;;;24.90;60.90;;;;;;4801619;54;20995;-26
2021/06/10 04:41:11;;;;;;;14.77;13.20;;;24.90;60.90;;;;;;4795044;58;21448;-31
2021/06/10 04:46:12;;;;;;;14.77;13.27;;;24.90;60.80;;;;;;4802504;54;20995;-20
2021/06/10 04:51:13;;;;;;;14.65;13.23;;;24.90;60.80;;;;;;4808418;54;20987;-34
2021/06/10 04:56:14;;;;;;;14.43;13.00;;;24.90;60.70;;;;;;4803072;54;21015;-34
2021/06/10 05:01:16;;;;;;;14.85;13.48;;;24.90;60.70;;;;;;4813582;54;21582;-34
2021/06/10 05:06:17;;;;;;;14.20;12.80;;;24.90;60.70;;;;;;4822567;54;21114;-36
2021/06/10 05:11:17;;;;;;;13.65;12.35;;;24.90;60.60;;;;;;4795578;58;21360;-33
2021/06/10 05:16:18;;;;;;;14.10;12.75;;;24.90;60.50;;;;;;4848761;54;20991;-32
2021/06/10 05:21:19;;;;;;;15.35;13.90;;;24.90;60.50;;;;;;4798037;54;21015;-34
2021/06/10 05:26:20;;;;;;;14.98;13.60;;;24.90;60.50;;;;;;4831742;54;20987;-39
2021/06/10 05:31:22;;;;;;;14.02;12.63;;;24.90;60.50;;;;;;4795411;58;21008;-31
2021/06/10 05:36:23;;;;;;;13.80;12.40;;;24.90;60.40;;;;;;4813618;54;21564;-34
2021/06/10 05:41:24;;;;;;;14.50;13.10;;;24.90;60.40;;;;;;4806004;54;21075;-31
2021/06/10 05:46:25;;;;;;;14.15;12.75;;;24.90;60.40;;;;;;4794879;55;20987;-34
2021/06/10 05:51:26;;;;;;;13.70;12.30;;;24.90;60.30;;;;;;4834354;54;21047;-31
2021/06/10 05:56:26;;;;;;;14.75;12.70;;;24.90;60.40;;;;;;4795206;58;21019;-31
2021/06/10 06:01:28;;;;;;;14.23;12.70;;;24.90;60.20;;;;;;4836572;54;21027;-31
2021/06/10 06:06:28;;;;;;;13.80;12.35;;;24.90;60.30;;;;;;4798976;54;21093;-30
2021/06/10 06:11:29;;;;;;;14.95;13.45;;;24.90;60.20;;;;;;4825826;54;20991;-31
2021/06/10 06:16:30;;;;;;;14.57;13.07;;;24.90;60.30;;;;;;4841846;54;21048;-27
2021/06/10 06:21:33;;;;;;;14.20;12.90;;;24.90;60.20;;;;;;4794554;58;21079;-35
2021/06/10 06:26:34;;;;;;;14.63;13.23;;;24.90;60.20;;;;;;4877147;54;21461;-31
2021/06/10 06:31:37;;;;;;;14.38;12.88;;;24.90;60.20;;;;;;4817996;54;21022;-30
2021/06/10 06:36:38;;;;;;;13.18;11.98;;;24.90;60.10;;;;;;4846505;54;21059;-27
2021/06/10 06:41:39;;;;;;;14.90;13.40;;;24.90;60.20;;;;;;4820989;54;21000;-28
2021/06/10 06:46:40;;;;;;;14.75;13.35;;;24.90;60.20;;;;;;4821249;54;21474;-34
2021/06/10 06:51:41;;;;;;;15.18;13.52;;;24.90;60.20;;;;;;4831956;54;21518;-32
2021/06/10 06:56:41;;;;;;;14.65;13.25;;;24.90;60.20;;;;;;4822755;54;21011;-29
2021/06/10 07:01:42;;;;;;;16.12;14.63;;;24.90;60.20;;;;;;4799723;54;21510;-35
2021/06/10 07:06:43;;;;;;;15.63;13.93;;;24.90;60.30;;;;;;4816552;54;21006;-32
2021/06/10 07:11:44;;;;;;;15.93;14.00;;;24.90;60.40;;;;;;4826123;54;21549;-30
2021/06/10 07:16:45;;;;;;;15.60;14.13;;;24.90;60.60;;;;;;4817218;54;21031;-33
2021/06/10 07:21:50;;;;;;;17.20;14.65;;;25.00;60.70;;;;;;4824021;54;21620;-32
2021/06/10 07:26:51;;;;;;;16.08;14.35;;;25.00;60.80;;;;;;4794566;55;21468;-29
2021/06/10 07:31:52;;;;;;;17.25;15.23;;;25.00;60.90;;;;;;4819184;54;20987;-27
2021/06/10 07:36:52;;;;;;;16.92;15.18;;;25.00;60.90;;;;;;4794025;58;20983;-25
2021/06/10 07:41:56;;;;;;;18.40;16.37;;;25.10;61.10;;;;;;4805761;54;21554;-24
2021/06/10 07:46:57;;;;;;;20.40;16.73;;;25.20;61.60;;;;;;4813942;54;20983;-20
2021/06/10 07:51:58;;;;;;;19.23;17.12;;;25.10;61.50;;;;;;4835932;54;21568;-28
2021/06/10 07:56:59;;;;;;;19.25;16.92;;;25.10;61.50;;;;;;4816452;54;21544;-28
2021/06/10 08:02:00;;;;;;;18.73;16.83;;;25.10;61.40;;;;;;4872301;54;21067;-29
2021/06/10 08:07:00;;;;;;;28.90;24.08;;;25.10;61.40;;;;;;4847496;54;21062;-32
2021/06/10 08:12:02;;;;;;;63.33;46.60;;;25.10;61.50;;;;;;4853860;54;21397;-32
2021/06/10 08:17:03;;;;;;;73.60;54.70;;;25.10;61.20;;;;;;4837339;54;21058;-35
2021/06/10 08:22:04;;;;;;;83.35;67.80;;;25.00;61.40;;;;;;4802353;54;21091;-31
2021/06/10 08:27:07;;;;;;;80.53;59.88;;;25.00;62.00;;;;;;4795625;58;21847;-28
2021/06/10 08:32:08;;;;;;;66.97;52.72;;;25.00;61.40;;;;;;4810588;54;21944;-35
2021/06/10 08:37:09;;;;;;;55.58;45.85;;;25.00;61.60;;;;;;4876389;54;21201;-32
2021/06/10 08:42:10;;;;;;;50.22;40.03;;;24.90;60.80;;;;;;4806531;54;21118;-32
2021/06/10 08:47:13;;;;;;;45.85;37.50;;;24.90;60.60;;;;;;4819902;54;21518;-28
2021/06/10 08:52:13;;;;;;;44.55;36.63;;;24.90;60.40;;;;;;4809304;54;21517;-29
2021/06/10 08:57:14;;;;;;;46.30;38.42;;;24.90;60.60;;;;;;4796451;54;21027;-27
2021/06/10 09:02:15;;;;;;;43.20;36.88;;;25.00;60.60;;;;;;4807708;54;21915;-31
2021/06/10 09:07:16;;;;;;;42.33;35.38;;;25.00;60.20;;;;;;4804903;54;21071;-28
2021/06/10 09:12:20;;;;;;;44.33;36.08;;;25.00;60.30;;;;;;4814059;54;21143;-27
2021/06/10 09:17:35;;;;;;;49.35;37.25;;;25.00;60.40;;;;;;4836924;54;21545;-28
2021/06/10 09:22:36;;;;;;;50.65;38.78;;;25.10;60.20;;;;;;4796402;54;21103;-31
2021/06/10 09:28:00;;;;;;;45.22;36.42;;;25.10;60.30;;;;;;4804262;54;21018;-31
2021/06/10 09:33:05;;;;;;;47.00;36.47;;;25.10;59.70;;;;;;4819349;54;21039;-33
2021/06/10 09:38:15;;;;;;;42.72;34.92;;;25.10;60.10;;;;;;4818630;54;21059;-32
2021/06/10 09:43:15;;;;;;;39.15;30.70;;;25.10;59.40;;;;;;4805421;54;21430;-33
2021/06/10 09:48:31;;;;;;;43.58;32.47;;;25.10;59.30;;;;;;4807446;54;21074;-25
2021/06/10 09:53:33;;;;;;;42.00;31.75;;;25.10;59.10;;;;;;4793885;58;21172;-32
2021/06/10 09:58:53;;;;;;;39.65;30.37;;;25.10;58.50;;;;;;4814024;54;21466;-30
2021/06/10 10:03:54;;;;;;;46.08;36.03;;;25.20;58.60;;;;;;4802590;54;21521;-29
2021/06/10 10:09:00;;;;;;;42.30;31.95;;;25.20;58.30;;;;;;4828348;54;21038;-29
2021/06/10 10:14:05;;;;;;;37.17;30.43;;;25.20;57.40;;;;;;4795768;54;21023;-30
2021/06/10 10:19:06;;;;;;;39.58;31.55;;;25.10;56.40;;;;;;4821664;54;21493;-31
2021/06/10 10:24:09;;;;;;;35.45;30.17;;;25.20;56.60;;;;;;4814104;54;21031;-27
2021/06/10 10:29:12;;;;;;;32.90;27.92;;;25.20;56.30;;;;;;4810499;54;21074;-27
2021/06/10 10:34:29;;;;;;;41.33;30.62;;;25.20;56.40;;;;;;4816503;54;21552;-32
2021/06/10 10:39:32;;;;;;;43.90;34.00;;;25.20;56.50;;;;;;4793957;58;21092;-32
2021/06/10 10:44:34;;;;;;;42.55;31.27;;;25.20;56.50;;;;;;4830326;54;21478;-25
2021/06/10 10:49:47;;;;;;;39.20;32.05;;;25.20;56.60;;;;;;4550380;54;21521;-27
2021/06/10 10:54:51;;;;;;;38.40;29.90;;;25.20;56.70;;;;;;4447823;59;21232;-32
2021/06/10 10:59:52;;;;;;;38.78;28.67;;;25.20;57.10;;;;;;4453836;59;21702;-34
2021/06/10 11:05:01;;;;;;;45.28;32.83;;;25.20;57.10;;;;;;4453889;59;21111;-26
2021/06/10 11:10:04;;;;;;;42.60;34.10;;;25.30;57.30;;;;;;4435544;59;21048;-24
2021/06/10 11:15:06;;;;;;;44.20;33.03;;;25.30;57.50;;;;;;4460398;59;21059;-31
2021/06/10 11:20:11;;;;;;;40.45;33.58;;;25.20;57.50;;;;;;4459720;59;21071;-24
2021/06/10 11:25:40;;;;;;;41.03;32.15;;;25.20;57.40;;;;;;4433125;59;21573;-30
2021/06/10 11:30:46;;;;;;;38.63;32.17;;;25.30;57.50;;;;;;4449124;59;21525;-31
2021/06/10 11:36:02;;;;;;;36.93;31.20;;;25.30;57.60;;;;;;4452266;59;21633;-33
2021/06/10 11:41:18;;;;;;;33.33;29.02;;;25.30;58.30;;;;;;4440156;59;21164;-24
2021/06/10 11:46:19;;;;;;;35.80;29.95;;;25.30;57.60;;;;;;4432525;63;21549;-29
2021/06/10 11:51:29;;;;;;;34.42;30.12;;;25.30;57.70;;;;;;4444607;59;21075;-33
2021/06/10 11:56:30;;;;;;;34.95;29.65;;;25.30;57.70;;;;;;4432754;63;21200;-34
2021/06/10 12:01:31;;;;;;;42.00;33.22;;;25.30;57.90;;;;;;4447857;59;21091;-33
2021/06/10 12:06:32;;;;;;;36.38;30.27;;;25.40;58.10;;;;;;4432941;60;21080;-36
2021/06/10 12:11:33;;;;;;;37.67;30.00;;;25.40;58.30;;;;;;4436405;59;21102;-32
2021/06/10 12:16:33;;;;;;;36.10;29.02;;;25.40;58.40;;;;;;4469959;59;21127;-32
2021/06/10 12:21:34;;;;;;;34.17;29.60;;;25.40;58.60;;;;;;4450822;59;21538;-28
2021/06/10 12:26:35;;;;;;;37.05;30.88;;;25.40;58.70;;;;;;4451681;59;21108;-30
2021/06/10 12:31:37;;;;;;;37.40;31.35;;;25.40;58.90;;;;;;4435839;59;21063;-31
2021/06/10 12:36:44;;;;;;;37.90;31.00;;;25.40;59.00;;;;;;4442139;59;21598;-28
2021/06/10 12:41:54;;;;;;;36.88;30.48;;;25.50;59.20;;;;;;4448615;59;21071;-29
2021/06/10 12:47:00;;;;;;;33.03;29.12;;;25.50;59.60;;;;;;4434258;59;21098;-31
2021/06/10 12:52:24;;;;;;;34.55;29.92;;;25.50;60.30;;;;;;4457108;59;21586;-31
2021/06/10 12:57:30;;;;;;;31.67;27.67;;;25.50;59.80;;;;;;4439945;59;21624;-22
2021/06/10 13:02:33;;;;;;;31.87;28.07;;;25.50;60.00;;;;;;4463957;59;21191;-29
2021/06/10 13:07:40;;;;;;;35.67;28.98;;;25.50;60.10;;;;;;4439555;59;22369;-30
2021/06/10 13:12:48;;;;;;;34.90;30.02;;;25.60;60.80;;;;;;4448000;59;21075;-33
2021/06/10 13:18:20;;;;;;;33.75;28.58;;;25.60;61.00;;;;;;4499176;59;21058;-27
2021/06/10 13:23:49;;;;;;;33.42;29.80;;;25.60;61.20;;;;;;4473027;59;21075;-32
2021/06/10 13:29:23;;;;;;;32.95;28.87;;;25.70;61.50;;;;;;4432627;63;21613;-34
2021/06/10 13:34:34;;;;;;;37.03;28.73;;;25.70;61.60;;;;;;4432683;63;21616;-26
2021/06/10 13:39:35;;;;;;;34.78;29.15;;;25.70;62.00;;;;;;4493345;58;21075;-32
2021/06/10 13:44:36;;;;;;;35.40;29.77;;;25.70;62.00;;;;;;4444720;59;21055;-33
2021/06/10 13:49:37;;;;;;;36.47;30.27;;;25.80;62.30;;;;;;4434243;59;21087;-21
2021/06/10 13:54:38;;;;;;;34.45;27.92;;;25.80;62.50;;;;;;4453655;59;21108;-27
2021/06/10 13:59:39;;;;;;;39.83;30.20;;;25.80;62.50;;;;;;4462251;59;21071;-25
2021/06/10 14:04:40;;;;;;;32.42;28.98;;;25.80;62.60;;;;;;4469863;59;21075;-23
2021/06/10 14:09:43;;;;;;;35.47;30.20;;;25.90;62.80;;;;;;4474829;59;21562;-28
2021/06/10 14:14:45;;;;;;;37.35;28.90;;;25.90;62.70;;;;;;4443256;59;22138;-33
2021/06/10 14:19:47;;;;;;;37.13;28.77;;;25.90;62.80;;;;;;4446090;59;21119;-32
2021/06/10 14:24:48;;;;;;;34.45;28.98;;;25.90;63.10;;;;;;4468111;59;21514;-32
2021/06/10 14:30:09;;;;;;;32.92;28.25;;;25.90;63.30;;;;;;4438050;59;21084;-33
2021/06/10 14:35:11;;;;;;;32.10;28.62;;;26.00;63.40;;;;;;4461303;59;21519;-31
2021/06/10 14:40:14;;;;;;;32.80;28.08;;;26.00;63.60;;;;;;4437358;59;21040;-32
2021/06/10 14:45:16;;;;;;;31.85;27.90;;;26.00;63.70;;;;;;4434432;59;21051;-33
2021/06/10 14:50:18;;;;;;;36.97;28.52;;;26.00;63.80;;;;;;4435748;59;21666;-33
2021/06/10 14:55:20;;;;;;;34.95;28.08;;;26.00;63.90;;;;;;4441594;59;21131;-27
2021/06/10 15:00:20;;;;;;;33.28;28.85;;;26.00;64.00;;;;;;4432418;59;21124;-31
2021/06/10 15:05:21;;;;;;;36.20;30.17;;;26.10;64.10;;;;;;4438441;59;21521;-32
2021/06/10 15:10:22;;;;;;;33.72;28.65;;;26.10;64.20;;;;;;4433744;59;21148;-32
2021/06/10 15:15:23;;;;;;;35.92;29.10;;;26.10;64.40;;;;;;4434558;59;21088;-35
2021/06/10 15:20:24;;;;;;;36.13;30.25;;;26.00;64.10;;;;;;4449472;59;21649;-31
2021/06/10 15:25:25;;;;;;;33.20;28.38;;;25.90;64.10;;;;;;4431347;59;21104;-36
2021/06/10 15:30:26;;;;;;;33.17;29.52;;;25.90;64.10;;;;;;4436050;59;21214;-32
2021/06/10 15:35:27;;;;;;;31.90;28.50;;;25.90;64.20;;;;;;4447552;59;21554;-30
2021/06/10 15:40:28;;;;;;;31.23;27.65;;;25.80;64.10;;;;;;4439129;58;21059;-29
2021/06/10 15:45:29;;;;;;;32.17;28.35;;;25.80;64.10;;;;;;4436121;59;21035;-31
2021/06/10 15:50:30;;;;;;;31.67;27.75;;;25.70;64.10;;;;;;4434082;63;21066;-35
2021/06/10 15:55:31;;;;;;;33.38;29.77;;;25.70;64.10;;;;;;4435872;59;21174;-34
2021/06/10 16:00:32;;;;;;;33.88;29.42;;;25.70;64.10;;;;;;4435254;59;21103;-36
2021/06/10 16:05:33;;;;;;;32.20;28.67;;;25.70;64.10;;;;;;4437442;59;21104;-33
2021/06/10 16:10:34;;;;;;;34.70;29.25;;;25.70;64.10;;;;;;4433170;63;21092;-35
2021/06/10 16:15:35;;;;;;;33.05;29.50;;;25.60;64.00;;;;;;4436546;59;21088;-31
2021/06/10 16:20:37;;;;;;;31.42;28.05;;;25.60;64.00;;;;;;4432831;59;21593;-40
2021/06/10 16:25:38;;;;;;;31.65;28.20;;;25.60;64.70;;;;;;4435418;59;21112;-28
2021/06/10 16:30:38;;;;;;;30.70;27.50;;;25.60;64.00;;;;;;4450785;59;21085;-31
2021/06/10 16:35:39;;;;;;;32.50;29.08;;;25.60;64.00;;;;;;4469150;59;21178;-37
2021/06/10 16:40:43;;;;;;;31.85;28.12;;;25.50;63.90;;;;;;4522925;59;21127;-36
2021/06/10 16:45:43;;;;;;;33.10;29.42;;;25.50;63.90;;;;;;4477268;59;21147;-30
2021/06/10 16:50:44;;;;;;;33.03;29.20;;;25.50;63.90;;;;;;4468238;59;21585;-28
2021/06/10 16:55:48;;;;;;;33.35;29.30;;;25.50;63.90;;;;;;4439831;59;21058;-24
2021/06/10 17:08:27;;;;;;;34.17;29.48;;;25.50;63.80;;;;;;4440605;59;21079;-35
2021/06/10 17:13:28;;;;;;;30.77;27.27;;;25.50;63.90;;;;;;4434017;63;21091;-34
2021/06/10 17:18:29;;;;;;;31.83;28.50;;;25.40;63.70;;;;;;4448619;59;21103;-28
2021/06/10 17:23:30;;;;;;;31.42;28.12;;;25.40;63.70;;;;;;4436413;59;21640;-33
2021/06/10 17:28:31;;;;;;;32.47;28.65;;;25.40;63.70;;;;;;4439168;58;21107;-33
2021/06/10 17:33:32;;;;;;;29.83;26.77;;;25.40;63.70;;;;;;4494726;58;21055;-31
2021/06/10 17:38:33;;;;;;;33.25;29.67;;;25.40;63.60;;;;;;4444028;58;21526;-29
2021/06/10 17:43:34;;;;;;;31.27;27.95;;;25.40;63.60;;;;;;4435450;59;21051;-32
2021/06/10 17:48:35;;;;;;;32.20;28.80;;;25.40;63.60;;;;;;4449706;59;21080;-30
2021/06/10 17:53:37;;;;;;;32.10;28.73;;;25.40;63.60;;;;;;4486148;59;21063;-30
2021/06/10 17:58:38;;;;;;;30.58;27.23;;;25.40;63.60;;;;;;4474530;58;21473;-30
2021/06/10 18:03:39;;;;;;;31.42;28.15;;;25.40;63.50;;;;;;4432682;63;21123;-34
2021/06/10 18:08:40;;;;;;;30.10;26.90;;;25.40;63.50;;;;;;4436275;59;21103;-35
2021/06/10 18:13:40;;;;;;;30.10;26.80;;;25.40;63.50;;;;;;4470278;59;21667;-32
2021/06/10 18:18:44;;;;;;;32.20;28.20;;;25.40;63.50;;;;;;4432745;63;21124;-22
2021/06/10 18:23:44;;;;;;;29.30;26.02;;;25.40;63.40;;;;;;4447129;58;21569;-29
2021/06/10 18:28:46;;;;;;;31.10;27.80;;;25.40;63.40;;;;;;4438932;59;21154;-29
2021/06/10 18:33:46;;;;;;;30.23;27.10;;;25.40;63.30;;;;;;4485369;59;21063;-30
2021/06/10 18:38:50;;;;;;;29.35;26.25;;;25.40;63.40;;;;;;4439724;59;21079;-27
2021/06/10 18:43:51;;;;;;;30.20;27.10;;;25.40;63.30;;;;;;4450948;59;21079;-33
2021/06/10 18:48:51;;;;;;;30.15;26.95;;;25.40;63.30;;;;;;4469060;58;22045;-28
2021/06/10 18:53:52;;;;;;;30.20;27.10;;;25.40;63.20;;;;;;4432810;59;21702;-31
2021/06/10 18:58:53;;;;;;;28.58;25.67;;;25.40;63.20;;;;;;4542781;58;21146;-37
2021/06/10 19:03:54;;;;;;;28.80;25.75;;;25.30;63.10;;;;;;4449748;59;21055;-36
2021/06/10 19:08:55;;;;;;;27.67;24.75;;;25.40;63.20;;;;;;4467066;59;21067;-32
2021/06/10 19:13:56;;;;;;;30.42;27.23;;;25.40;63.20;;;;;;4453206;59;21059;-36
2021/06/10 19:18:59;;;;;;;29.15;25.98;;;25.40;63.10;;;;;;4450316;59;21569;-33
2021/06/10 19:24:00;;;;;;;28.45;25.48;;;25.40;63.10;;;;;;4480847;59;21593;-36
2021/06/10 19:29:01;;;;;;;28.77;25.70;;;25.30;63.30;;;;;;4448020;59;21106;-37
2021/06/10 19:40:24;;;;;;;29.05;25.62;;;25.40;63.00;;;;;;4467330;59;21088;-37
2021/06/10 19:45:25;;;;;;;28.25;25.20;;;25.30;62.90;;;;;;4506278;59;22171;-26
2021/06/10 19:50:26;;;;;;;27.40;24.50;;;25.30;62.90;;;;;;4490470;58;21092;-28
2021/06/10 19:55:27;;;;;;;28.00;25.00;;;25.30;63.00;;;;;;4446238;58;21620;-29
2021/06/10 20:00:29;;;;;;;27.67;24.58;;;25.30;62.80;;;;;;4512144;59;21156;-36
2021/06/10 20:05:30;;;;;;;27.80;24.90;;;25.30;62.80;;;;;;4445671;59;21541;-32
2021/06/10 20:10:31;;;;;;;28.75;25.75;;;25.30;62.80;;;;;;4451771;59;21108;-38
2021/06/10 20:15:32;;;;;;;27.20;24.42;;;25.30;62.80;;;;;;4484471;59;21068;-22
2021/06/10 20:20:36;;;;;;;27.10;24.20;;;25.30;62.80;;;;;;4449482;59;21593;-31
2021/06/10 20:25:37;;;;;;;26.80;24.02;;;25.30;62.70;;;;;;4442699;59;21063;-26
2021/06/10 20:30:39;;;;;;;28.05;25.15;;;25.30;62.70;;;;;;4468400;59;21105;-26
2021/06/10 20:35:40;;;;;;;27.62;24.67;;;25.30;63.20;;;;;;4476847;59;22008;-18
2021/06/10 20:40:41;;;;;;;26.65;23.85;;;25.30;62.70;;;;;;4433012;63;21101;-35
2021/06/10 20:45:43;;;;;;;27.05;24.25;;;25.30;62.60;;;;;;4443733;59;21221;-36
2021/06/10 20:50:44;;;;;;;26.42;23.73;;;25.30;62.60;;;;;;4454782;59;21534;-35
2021/06/10 20:55:44;;;;;;;26.10;23.42;;;25.30;62.60;;;;;;4433789;63;21055;-36
2021/06/10 21:00:48;;;;;;;24.77;22.17;;;25.30;62.20;;;;;;4469029;58;21099;-33
2021/06/10 21:05:53;;;;;;;26.33;23.62;;;25.30;62.50;;;;;;4464983;58;21646;-33
2021/06/10 21:10:54;;;;;;;25.17;22.58;;;25.30;62.40;;;;;;4454345;59;21104;-26
2021/06/10 21:15:55;;;;;;;23.90;21.50;;;25.20;62.40;;;;;;4552379;59;21455;-20
2021/06/10 21:20:56;;;;;;;25.85;23.20;;;25.30;62.40;;;;;;4453682;59;21140;-25
2021/06/10 21:25:57;;;;;;;23.73;21.33;;;25.30;62.40;;;;;;4464425;59;21110;-28
2021/06/10 21:30:59;;;;;;;24.00;21.60;;;25.20;62.30;;;;;;4499733;59;21064;-20
2021/06/10 21:36:00;;;;;;;24.35;21.85;;;25.30;62.30;;;;;;4433640;63;21059;-26
2021/06/10 21:41:01;;;;;;;25.20;22.70;;;25.30;62.40;;;;;;4501520;59;21554;-27
2021/06/10 21:46:02;;;;;;;24.17;21.77;;;25.20;62.20;;;;;;4466767;59;21084;-18
2021/06/10 21:51:05;;;;;;;24.05;21.65;;;25.30;62.30;;;;;;4437030;59;21043;-24
2021/06/10 21:56:07;;;;;;;23.55;21.15;;;25.30;62.30;;;;;;4460042;59;21147;-28
2021/06/10 22:01:09;;;;;;;23.33;20.92;;;25.30;61.80;;;;;;4459814;59;21666;-35
2021/06/10 22:06:10;;;;;;;23.60;21.20;;;25.30;62.20;;;;;;4449545;59;21084;-24
2021/06/10 22:11:11;;;;;;;24.37;21.87;;;25.20;62.20;;;;;;4436260;59;21083;-34
2021/06/10 22:16:11;;;;;;;22.73;20.33;;;25.20;62.10;;;;;;4434105;63;21059;-36
2021/06/10 22:21:12;;;;;;;22.92;20.52;;;25.20;62.10;;;;;;4482296;59;21079;-35
2021/06/10 22:26:13;;;;;;;20.88;18.77;;;25.20;62.00;;;;;;4433667;63;21557;-33
2021/06/10 22:31:14;;;;;;;22.77;20.37;;;25.20;62.00;;;;;;4433067;63;21180;-30
2021/06/10 22:36:17;;;;;;;22.30;20.00;;;25.20;62.00;;;;;;4473961;59;21091;-35
2021/06/10 22:41:18;;;;;;;22.17;19.87;;;25.20;62.00;;;;;;4432604;63;21080;-35
2021/06/10 22:46:19;;;;;;;22.05;19.80;;;25.20;61.90;;;;;;4470667;59;21067;-34
2021/06/10 22:51:20;;;;;;;21.55;19.42;;;25.20;61.90;;;;;;4432658;63;21543;-30
2021/06/10 22:56:21;;;;;;;20.67;18.67;;;25.20;61.90;;;;;;4435265;59;21227;-36
2021/06/10 23:01:22;;;;;;;21.30;19.12;;;25.20;61.80;;;;;;4448569;59;21051;-36
2021/06/10 23:06:23;;;;;;;21.62;19.42;;;25.20;61.80;;;;;;4449894;59;21055;-27
2021/06/10 23:11:24;;;;;;;21.77;19.58;;;25.20;61.80;;;;;;4453432;59;21035;-35
2021/06/10 23:16:24;;;;;;;20.17;18.20;;;25.20;61.80;;;;;;4439217;59;21059;-35
2021/06/10 23:21:25;;;;;;;20.60;18.60;;;25.20;61.70;;;;;;4449237;59;21132;-33
2021/06/10 23:26:26;;;;;;;20.15;18.15;;;25.20;61.70;;;;;;4464052;59;21570;-36
2021/06/10 23:31:27;;;;;;;20.12;18.12;;;25.20;61.60;;;;;;4490692;59;21120;-32
2021/06/10 23:36:28;;;;;;;19.55;17.65;;;25.20;61.60;;;;;;4432726;63;21059;-34
2021/06/10 23:41:28;;;;;;;20.27;18.27;;;25.20;61.60;;;;;;4451709;59;21981;-30
2021/06/10 23:46:29;;;;;;;19.95;17.90;;;25.20;61.60;;;;;;4475903;58;21047;-21
2021/06/10 23:51:30;;;;;;;21.73;19.52;;;25.20;61.50;;;;;;4441831;59;21055;-21
2021/06/10 23:56:31;;;;;;;19.85;17.95;;;25.20;61.50;;;;;;4434957;59;21577;-23
